South Woodstock, Connecticut
Current Conditions -  °F | °C
As of 7:52 AM on Wednesday 26 Nov 2014 (Local Time) from KIJD Reporting Station
Light Rain Light Rain  
Wind Chill:   Ceiling: 4600
Heat Index:   Visibility: 9mi
Dew Point:   Wind: 6mph
Humidity: 83%   Direction: 320°NW
Pressure: 30.17"   Gusts: NA
Location:  41.93°N, 71.96°W
Report Text: KIJD 261252Z AUTO 32005KT 9SM -RA OVC046 04/02 A3017 RMK AO2 SLP219 P0001 T00440017
Loading
Personal Weather Stations






























Interactive Weather Map New forecast layout! Learn more

10-Day Weather Forecast

Advertisements
Track Severe Weather on mobile